KEN weather

Kenema Airport
Kenema, Eastern Province, Sierra Leone

Public forecast

Using degrees Celsius for public forecast. Weather courtesy of forecast.io.

Closest aviation weather report (METAR) to Kenema Airport

Closest report is Roberts International Airport, 110.7 nm (205.0 km) SSE. Retrieved 2020/06/03 17:00 UTC (16 minutes ago):

GLRB 031700Z 25006KT 9999 TS SCT018 FEW026CB 30/26 Q1010 NOSIG RMK CB/NE-SE

Closest aviation forecast (TAF) to Kenema Airport

Closest forecast is Roberts International Airport, 110.7 nm (205.0 km) SSE. Retrieved 2020/06/03 12:51 UTC (4 hours ago):

TAF TAF GLRB 031100Z 0312/0412 24012KT 9999 BKN020 TEMPO 0314/9318 18009KT SCT024 FEW027CB BECMG 0319/0321 VRB02KT 8000 -TSRA BKN015 FEW024CB